Time;durP1;ratioP1;P1;durP2;ratioP2;P2;SDS_P1;SDS_P2;PMS_P1;PMS_P2;Temp;Humidity;BMP_temperature;BMP_pressure;BME280_temperature;BME280_humidity;BME280_pressure;Samples;Min_cycle;Max_cycle;Signal;HPM_P1;HPM_P2
2023/09/04 00:01:35;;;;;;;3.17;2.00;;;15.90;99.90;;;;;;5044213;28;20069;-74
2023/09/04 00:04:21;;;;;;;2.85;2.00;;;15.80;99.90;;;;;;5020803;28;20037;-74
2023/09/04 00:07:07;;;;;;;4.40;1.77;;;15.80;99.90;;;;;;5036604;28;20051;-74
2023/09/04 00:09:53;;;;;;;3.67;1.90;;;15.70;99.90;;;;;;5040046;28;20044;-74
2023/09/04 00:12:39;;;;;;;6.28;2.45;;;15.70;99.90;;;;;;5031339;28;20099;-74
2023/09/04 00:15:25;;;;;;;5.53;2.35;;;15.60;99.90;;;;;;5020849;28;20114;-74
2023/09/04 00:18:11;;;;;;;4.90;2.00;;;15.60;99.90;;;;;;5021819;28;20060;-74
2023/09/04 00:20:57;;;;;;;4.25;1.92;;;15.60;99.90;;;;;;5047390;28;20109;-74
2023/09/04 00:23:43;;;;;;;4.30;2.00;;;15.60;99.90;;;;;;5032354;28;20489;-73
2023/09/04 00:26:29;;;;;;;3.72;1.90;;;15.50;99.90;;;;;;5039684;28;20059;-74
2023/09/04 00:29:15;;;;;;;5.88;2.08;;;15.50;99.90;;;;;;5040446;28;20098;-73
2023/09/04 00:32:02;;;;;;;5.50;2.08;;;15.50;99.90;;;;;;5015646;28;20038;-73
2023/09/04 00:34:48;;;;;;;2.70;2.00;;;15.40;99.90;;;;;;5026140;28;20041;-73
2023/09/04 00:37:34;;;;;;;4.38;2.05;;;15.40;99.90;;;;;;5048268;28;20738;-73
2023/09/04 00:40:21;;;;;;;4.95;2.13;;;15.40;99.90;;;;;;5030281;28;20055;-74
2023/09/04 00:43:07;;;;;;;7.40;2.30;;;15.40;99.90;;;;;;5030898;28;20048;-74
2023/09/04 00:45:53;;;;;;;4.63;2.15;;;15.30;99.90;;;;;;5018127;28;20093;-74
2023/09/04 00:48:39;;;;;;;4.53;1.90;;;15.30;99.90;;;;;;5008124;28;20098;-73
2023/09/04 00:51:25;;;;;;;4.25;1.95;;;15.20;99.90;;;;;;5038336;28;20040;-73
2023/09/04 00:54:11;;;;;;;3.88;2.30;;;15.30;99.90;;;;;;5035625;28;20029;-73
2023/09/04 00:56:57;;;;;;;5.55;2.50;;;15.20;99.90;;;;;;5021041;28;20435;-74
2023/09/04 00:59:43;;;;;;;3.25;2.53;;;15.20;99.90;;;;;;5032856;28;20041;-74
2023/09/04 01:02:29;;;;;;;4.75;2.30;;;15.20;99.90;;;;;;5033106;28;20041;-73
2023/09/04 01:05:15;;;;;;;3.60;2.40;;;15.20;99.90;;;;;;5011647;28;20045;-73
2023/09/04 01:08:01;;;;;;;5.50;2.35;;;15.10;99.90;;;;;;5035303;28;20048;-73
2023/09/04 01:11:11;;;;;;;4.45;2.97;;;15.00;99.90;;;;;;5022361;28;20409;-73
2023/09/04 01:13:57;;;;;;;3.17;2.38;;;15.00;99.90;;;;;;5033591;28;20034;-74
2023/09/04 01:16:43;;;;;;;3.30;2.22;;;14.90;99.90;;;;;;5027429;28;20559;-74
2023/09/04 01:19:30;;;;;;;4.00;2.65;;;14.80;99.90;;;;;;5009256;28;20061;-73
2023/09/04 01:22:16;;;;;;;5.00;2.47;;;14.80;99.90;;;;;;5027408;28;20076;-73
2023/09/04 01:25:02;;;;;;;4.13;2.97;;;14.70;99.90;;;;;;5028198;28;20040;-73
2023/09/04 01:28:03;;;;;;;3.88;2.65;;;14.70;99.90;;;;;;5018673;28;20072;-74
2023/09/04 01:31:11;;;;;;;4.10;2.80;;;14.60;99.90;;;;;;5013141;28;20037;-73
2023/09/04 01:34:13;;;;;;;5.28;3.05;;;14.60;99.90;;;;;;5021608;28;20034;-73
2023/09/04 01:37:00;;;;;;;3.80;2.58;;;14.60;99.90;;;;;;5048082;28;20037;-73
2023/09/04 01:39:46;;;;;;;6.93;2.80;;;14.60;99.90;;;;;;5014375;28;20080;-73
2023/09/04 01:42:34;;;;;;;4.15;2.80;;;14.60;99.90;;;;;;5020294;28;20065;-73
2023/09/04 01:45:20;;;;;;;6.28;2.85;;;14.60;99.90;;;;;;5030802;28;20045;-73
2023/09/04 01:48:06;;;;;;;4.03;2.92;;;14.60;99.90;;;;;;5042285;28;20044;-73
2023/09/04 01:50:53;;;;;;;4.47;3.25;;;14.60;99.90;;;;;;5028411;28;20041;-72
2023/09/04 01:53:40;;;;;;;4.57;3.33;;;14.60;99.90;;;;;;5031921;28;20492;-72
2023/09/04 01:56:26;;;;;;;4.75;3.10;;;14.60;99.90;;;;;;5042781;28;20059;-72
2023/09/04 01:59:12;;;;;;;5.28;2.90;;;14.60;99.90;;;;;;5037087;28;20358;-72
2023/09/04 02:01:58;;;;;;;4.68;3.25;;;14.60;99.90;;;;;;5032708;28;20430;-71
2023/09/04 02:04:44;;;;;;;4.57;3.10;;;14.60;99.90;;;;;;5040424;28;20380;-72
2023/09/04 02:07:30;;;;;;;8.32;4.00;;;14.60;99.90;;;;;;5045355;28;20041;-71
2023/09/04 02:10:15;;;;;;;4.63;2.92;;;14.60;99.90;;;;;;5041746;28;20042;-72
2023/09/04 02:13:03;;;;;;;5.80;3.00;;;14.60;99.90;;;;;;5034079;28;20060;-72
2023/09/04 02:15:50;;;;;;;6.10;2.80;;;14.60;99.90;;;;;;5028144;28;20044;-72
2023/09/04 02:18:36;;;;;;;4.88;2.80;;;14.60;99.90;;;;;;5006391;28;20126;-72
2023/09/04 02:21:22;;;;;;;4.70;2.90;;;14.60;99.90;;;;;;5026464;28;20060;-72
2023/09/04 02:24:08;;;;;;;3.83;2.65;;;14.60;99.90;;;;;;5029427;28;20102;-71
2023/09/04 02:26:53;;;;;;;5.10;2.80;;;14.50;99.90;;;;;;5047927;28;20045;-72
2023/09/04 02:29:39;;;;;;;4.45;2.58;;;14.50;99.90;;;;;;5018858;28;20505;-71
2023/09/04 02:32:25;;;;;;;3.97;2.65;;;14.50;99.90;;;;;;5025924;28;20041;-72
2023/09/04 02:35:13;;;;;;;4.07;2.58;;;14.40;99.90;;;;;;5034813;28;20041;-72
2023/09/04 02:37:59;;;;;;;3.33;2.57;;;14.40;99.90;;;;;;5035270;28;20424;-72
2023/09/04 02:40:45;;;;;;;4.68;2.90;;;14.40;99.90;;;;;;5029082;28;20037;-72
2023/09/04 02:43:31;;;;;;;4.32;2.90;;;14.40;99.90;;;;;;5043897;28;20042;-72
2023/09/04 02:46:17;;;;;;;4.15;2.53;;;14.40;99.90;;;;;;5038055;28;20537;-72
2023/09/04 02:49:03;;;;;;;6.18;2.45;;;14.40;99.90;;;;;;5025247;28;20075;-72
2023/09/04 02:51:49;;;;;;;5.47;2.70;;;14.40;99.90;;;;;;5035436;28;20052;-72
2023/09/04 02:54:36;;;;;;;4.00;2.78;;;14.40;99.90;;;;;;5024256;28;20048;-72
2023/09/04 02:57:22;;;;;;;9.75;3.50;;;14.30;99.90;;;;;;5021637;28;20049;-71
2023/09/04 03:00:09;;;;;;;5.75;2.70;;;14.30;99.90;;;;;;5033937;28;20044;-72
2023/09/04 03:02:55;;;;;;;3.90;2.70;;;14.30;99.90;;;;;;5034849;28;20049;-72
2023/09/04 03:05:41;;;;;;;4.72;2.53;;;14.30;99.90;;;;;;5041521;28;20052;-72
2023/09/04 03:08:29;;;;;;;4.15;2.55;;;14.30;99.90;;;;;;5041031;28;20044;-73
2023/09/04 03:11:15;;;;;;;4.20;2.67;;;14.20;99.90;;;;;;5031508;28;20045;-72
2023/09/04 03:14:01;;;;;;;4.30;2.50;;;14.30;99.90;;;;;;5021084;28;20034;-72
2023/09/04 03:16:46;;;;;;;3.75;2.50;;;14.20;99.90;;;;;;5046974;28;20044;-72
2023/09/04 03:19:32;;;;;;;3.20;2.45;;;14.20;99.90;;;;;;5039099;28;20115;-72
2023/09/04 03:22:18;;;;;;;5.70;2.60;;;14.20;99.90;;;;;;5036564;28;20052;-72
2023/09/04 03:25:05;;;;;;;5.57;2.67;;;14.10;99.90;;;;;;5025688;28;20102;-72
2023/09/04 03:27:51;;;;;;;5.57;3.03;;;14.00;99.90;;;;;;5022720;28;20136;-72
2023/09/04 03:30:37;;;;;;;4.65;3.45;;;14.00;99.90;;;;;;5037406;28;20077;-72
2023/09/04 03:33:23;;;;;;;5.75;3.20;;;14.00;99.90;;;;;;5029341;28;20037;-72
2023/09/04 03:36:12;;;;;;;6.05;2.65;;;13.90;99.90;;;;;;5048270;28;20198;-72
2023/09/04 03:38:58;;;;;;;4.32;2.92;;;13.90;99.90;;;;;;5054767;28;20037;-72
2023/09/04 03:41:44;;;;;;;4.32;3.00;;;13.90;99.90;;;;;;5019485;28;20053;-72
2023/09/04 03:44:30;;;;;;;5.53;3.03;;;13.90;99.90;;;;;;5027350;28;20040;-72
2023/09/04 03:47:16;;;;;;;6.88;3.53;;;13.90;99.90;;;;;;5026506;28;20413;-72
2023/09/04 03:50:02;;;;;;;5.47;3.55;;;13.90;99.90;;;;;;5037502;28;20041;-72
2023/09/04 03:52:48;;;;;;;6.32;3.08;;;14.00;99.90;;;;;;5037253;28;20051;-72
2023/09/04 03:55:34;;;;;;;4.53;3.33;;;14.00;99.90;;;;;;5033841;28;20102;-72
2023/09/04 03:58:20;;;;;;;4.00;2.85;;;14.00;99.90;;;;;;5041936;28;20049;-72
2023/09/04 04:01:06;;;;;;;6.57;2.95;;;14.00;99.90;;;;;;5006059;28;20497;-72
2023/09/04 04:03:52;;;;;;;3.75;2.90;;;13.90;99.90;;;;;;5047535;28;20049;-72
2023/09/04 04:06:39;;;;;;;5.10;2.90;;;13.90;99.90;;;;;;5039215;28;20056;-72
2023/09/04 04:09:25;;;;;;;3.90;2.53;;;13.90;99.90;;;;;;5048290;28;20037;-72
2023/09/04 04:12:12;;;;;;;4.50;3.00;;;13.90;99.90;;;;;;5028413;28;20087;-72
2023/09/04 04:14:58;;;;;;;4.80;2.88;;;13.80;99.90;;;;;;5031445;28;20481;-71
2023/09/04 04:17:44;;;;;;;4.82;2.90;;;13.80;99.90;;;;;;5035760;28;20053;-71
2023/09/04 04:20:30;;;;;;;4.57;2.85;;;13.80;99.90;;;;;;5033217;28;20057;-71
2023/09/04 04:23:16;;;;;;;5.18;2.80;;;13.80;99.90;;;;;;5036030;28;20492;-71
2023/09/04 04:26:03;;;;;;;6.22;2.67;;;13.80;99.90;;;;;;5011775;28;20128;-71
2023/09/04 04:28:49;;;;;;;7.22;3.00;;;13.80;99.90;;;;;;5032861;28;20098;-71
2023/09/04 04:31:34;;;;;;;9.35;3.20;;;13.70;99.90;;;;;;5006483;28;20382;-71
2023/09/04 04:34:20;;;;;;;8.00;2.70;;;13.70;99.90;;;;;;5055934;28;20037;-71
2023/09/04 04:37:06;;;;;;;7.43;2.80;;;13.60;99.90;;;;;;5033782;28;20332;-71
2023/09/04 04:39:52;;;;;;;5.05;2.72;;;13.60;99.90;;;;;;5051279;28;20041;-71
2023/09/04 04:42:39;;;;;;;5.90;2.58;;;13.50;99.90;;;;;;5021043;28;20534;-71
2023/09/04 04:45:25;;;;;;;4.05;2.40;;;13.50;99.90;;;;;;5030886;28;20493;-71
2023/09/04 04:48:11;;;;;;;4.53;2.72;;;13.50;99.90;;;;;;5033972;28;20041;-71
2023/09/04 04:50:57;;;;;;;5.50;2.50;;;13.50;99.90;;;;;;5036507;28;20033;-71
2023/09/04 04:53:43;;;;;;;6.82;2.60;;;13.50;99.90;;;;;;5038001;28;20036;-71
2023/09/04 04:56:29;;;;;;;7.28;2.88;;;13.50;99.90;;;;;;5017069;28;20041;-70
2023/09/04 04:59:16;;;;;;;4.05;2.60;;;13.50;99.90;;;;;;5040693;28;20131;-71
2023/09/04 05:02:01;;;;;;;3.25;2.17;;;13.40;99.90;;;;;;5022732;28;20118;-71
2023/09/04 05:04:48;;;;;;;3.60;2.47;;;13.50;99.90;;;;;;5017948;28;20525;-71
2023/09/04 05:07:34;;;;;;;4.57;2.40;;;13.50;99.90;;;;;;5042879;28;20048;-71
2023/09/04 05:10:20;;;;;;;5.30;2.58;;;13.50;99.90;;;;;;5049580;28;20151;-71
2023/09/04 05:13:06;;;;;;;5.28;2.75;;;13.40;99.90;;;;;;5039857;28;20068;-71
2023/09/04 05:15:53;;;;;;;4.63;2.25;;;13.40;99.90;;;;;;5024249;28;20060;-73
2023/09/04 05:18:40;;;;;;;4.57;2.53;;;13.40;99.90;;;;;;5048584;28;20045;-74
2023/09/04 05:21:26;;;;;;;3.83;2.30;;;13.40;99.90;;;;;;5045927;28;20476;-73
2023/09/04 05:24:12;;;;;;;4.70;2.63;;;13.50;99.90;;;;;;5038266;28;20044;-74
2023/09/04 05:26:58;;;;;;;6.75;2.95;;;13.40;99.90;;;;;;5039473;28;20040;-73
2023/09/04 05:29:44;;;;;;;6.22;2.67;;;13.50;99.90;;;;;;5038530;28;20100;-74
2023/09/04 05:32:31;;;;;;;4.20;2.88;;;13.50;99.90;;;;;;5027131;28;20567;-72
2023/09/04 05:35:17;;;;;;;3.83;2.50;;;13.50;99.90;;;;;;5040358;28;20049;-71
2023/09/04 05:38:03;;;;;;;3.85;2.83;;;13.50;99.90;;;;;;5044562;28;20121;-72
2023/09/04 05:40:53;;;;;;;12.90;4.55;;;13.50;99.90;;;;;;5022875;28;20041;-72
2023/09/04 05:43:39;;;;;;;5.55;3.10;;;13.50;99.90;;;;;;5035256;28;20037;-72
2023/09/04 05:46:25;;;;;;;5.03;2.67;;;13.50;99.90;;;;;;5020606;28;20783;-72
2023/09/04 05:49:11;;;;;;;5.13;3.05;;;13.50;99.90;;;;;;5040567;28;20545;-72
2023/09/04 05:51:57;;;;;;;5.60;3.10;;;13.60;99.90;;;;;;5028064;28;20052;-72
2023/09/04 05:54:43;;;;;;;5.53;3.17;;;13.60;99.90;;;;;;5045067;28;20509;-72
2023/09/04 05:57:29;;;;;;;4.60;2.63;;;13.60;99.90;;;;;;5030525;28;20068;-72
2023/09/04 06:00:15;;;;;;;4.65;2.92;;;13.70;99.90;;;;;;5027918;28;20041;-72
2023/09/04 06:03:01;;;;;;;5.20;2.70;;;13.70;99.90;;;;;;5035714;28;20055;-71
2023/09/04 06:05:48;;;;;;;5.05;3.00;;;13.80;99.90;;;;;;5037357;28;20044;-71
2023/09/04 06:08:35;;;;;;;6.20;3.03;;;13.80;99.90;;;;;;5040814;28;20377;-73
2023/09/04 06:11:21;;;;;;;13.00;4.47;;;13.90;99.90;;;;;;5037353;28;20347;-72
2023/09/04 06:14:07;;;;;;;4.65;4.03;;;13.90;99.90;;;;;;5018078;28;20040;-73
2023/09/04 06:16:53;;;;;;;5.88;3.40;;;13.90;99.90;;;;;;5033975;28;20470;-71
2023/09/04 06:19:39;;;;;;;7.47;3.78;;;13.90;99.90;;;;;;5041816;28;20144;-72
2023/09/04 06:22:25;;;;;;;7.53;4.00;;;14.00;99.90;;;;;;5026716;28;20037;-73
2023/09/04 06:25:11;;;;;;;4.68;3.45;;;14.00;99.90;;;;;;5038264;28;20045;-72
2023/09/04 06:27:57;;;;;;;5.03;3.65;;;14.00;99.90;;;;;;5028398;28;20086;-73
2023/09/04 06:30:44;;;;;;;4.63;3.20;;;14.10;99.90;;;;;;5034288;28;20361;-72
2023/09/04 06:33:33;;;;;;;7.10;3.40;;;14.10;99.90;;;;;;5033452;28;20056;-72
2023/09/04 06:36:19;;;;;;;5.60;3.15;;;14.20;99.90;;;;;;5035126;28;20049;-72
2023/09/04 06:39:06;;;;;;;4.53;3.20;;;14.20;99.90;;;;;;5024785;28;20118;-72
2023/09/04 06:41:52;;;;;;;4.75;2.63;;;14.30;99.90;;;;;;5026181;28;20044;-73
2023/09/04 06:44:38;;;;;;;5.90;3.35;;;14.40;99.90;;;;;;5035473;28;20119;-73
2023/09/04 06:47:24;;;;;;;4.43;3.35;;;14.50;99.90;;;;;;5043669;28;20068;-73
2023/09/04 06:50:10;;;;;;;4.78;3.22;;;14.50;99.90;;;;;;5038434;28;20593;-72
2023/09/04 06:52:56;;;;;;;4.25;3.00;;;14.50;99.90;;;;;;5037933;28;20033;-72
2023/09/04 06:55:42;;;;;;;6.30;3.60;;;14.60;99.90;;;;;;5035577;28;20075;-72
2023/09/04 06:58:28;;;;;;;4.78;2.60;;;14.60;99.90;;;;;;5043666;28;20049;-73
2023/09/04 07:01:15;;;;;;;5.22;3.13;;;14.70;99.90;;;;;;5038054;28;20041;-72
2023/09/04 07:04:01;;;;;;;6.43;3.10;;;14.80;99.90;;;;;;5043041;28;20436;-73
2023/09/04 07:06:47;;;;;;;5.32;3.33;;;14.80;99.90;;;;;;5035509;28;20056;-73
2023/09/04 07:09:33;;;;;;;4.55;2.72;;;14.90;99.90;;;;;;5056266;28;20474;-73
2023/09/04 07:12:19;;;;;;;5.78;2.92;;;14.90;99.90;;;;;;5033648;28;20103;-74
2023/09/04 07:15:06;;;;;;;5.60;3.00;;;15.00;99.90;;;;;;5054177;28;20074;-71
2023/09/04 07:17:52;;;;;;;5.72;3.00;;;15.10;99.90;;;;;;5046756;28;20040;-72
2023/09/04 07:20:41;;;;;;;7.30;3.50;;;15.20;99.90;;;;;;5043934;28;20175;-73
2023/09/04 07:23:27;;;;;;;4.43;2.60;;;15.20;99.90;;;;;;5029899;28;20127;-73
2023/09/04 07:26:13;;;;;;;3.92;2.60;;;15.30;99.90;;;;;;5018881;28;20465;-73
2023/09/04 07:28:59;;;;;;;6.47;3.05;;;15.40;99.90;;;;;;5037292;28;20398;-73
2023/09/04 07:31:45;;;;;;;7.28;2.92;;;15.40;99.90;;;;;;5023391;28;20095;-73
2023/09/04 07:34:31;;;;;;;4.85;2.70;;;15.50;99.90;;;;;;5024577;28;20099;-73
2023/09/04 07:37:17;;;;;;;5.00;2.60;;;15.60;99.90;;;;;;5043927;28;20045;-73
2023/09/04 07:40:04;;;;;;;5.15;3.00;;;15.70;99.90;;;;;;5038602;28;20072;-74
2023/09/04 07:42:50;;;;;;;6.40;3.10;;;15.90;99.90;;;;;;5044896;28;20033;-74
2023/09/04 07:45:36;;;;;;;7.72;3.20;;;16.00;99.90;;;;;;5036468;28;20784;-73
2023/09/04 07:48:22;;;;;;;7.68;3.95;;;16.20;99.90;;;;;;5037606;28;20091;-73
2023/09/04 07:51:08;;;;;;;5.90;2.85;;;16.20;99.90;;;;;;5037810;28;20087;-73
2023/09/04 07:53:54;;;;;;;4.60;2.88;;;16.30;99.90;;;;;;5042391;28;20047;-73
2023/09/04 07:56:40;;;;;;;5.38;3.00;;;16.40;99.90;;;;;;5057723;28;20082;-73
2023/09/04 07:59:26;;;;;;;4.88;3.20;;;16.50;99.90;;;;;;5035794;28;20167;-72
2023/09/04 08:02:12;;;;;;;7.97;4.63;;;16.50;99.90;;;;;;5018013;28;20080;-73
2023/09/04 08:05:00;;;;;;;5.03;3.28;;;16.60;99.90;;;;;;5045542;28;20135;-73
2023/09/04 08:07:46;;;;;;;8.57;2.88;;;16.70;99.90;;;;;;5033560;28;20053;-73
2023/09/04 08:10:32;;;;;;;6.30;3.50;;;16.80;99.90;;;;;;5047107;28;20033;-73
2023/09/04 08:13:18;;;;;;;4.57;3.08;;;16.90;99.90;;;;;;5047953;28;20037;-73
2023/09/04 08:16:04;;;;;;;4.57;2.60;;;16.90;99.90;;;;;;5038311;28;20040;-73
2023/09/04 08:18:50;;;;;;;3.55;2.63;;;17.00;99.90;;;;;;5047426;28;20120;-73
2023/09/04 08:21:36;;;;;;;4.90;3.05;;;17.20;99.90;;;;;;5038052;28;20504;-73
2023/09/04 08:24:22;;;;;;;4.53;2.53;;;17.20;99.90;;;;;;5029357;28;20040;-73
2023/09/04 08:27:08;;;;;;;5.20;2.60;;;17.40;99.90;;;;;;5032199;28;20354;-73
2023/09/04 08:29:54;;;;;;;4.43;2.70;;;17.70;99.90;;;;;;5026830;28;20044;-73
2023/09/04 08:32:39;;;;;;;3.70;2.63;;;17.70;99.90;;;;;;5018153;28;20363;-73
2023/09/04 08:35:28;;;;;;;4.93;2.55;;;17.70;99.90;;;;;;5032593;28;20032;-73
2023/09/04 08:38:14;;;;;;;3.88;2.40;;;17.80;99.90;;;;;;5043713;28;20034;-74
2023/09/04 08:41:03;;;;;;;3.72;2.22;;;17.80;99.90;;;;;;5033674;28;20043;-73
2023/09/04 08:43:49;;;;;;;3.20;2.13;;;17.90;99.90;;;;;;5028897;28;20488;-74
2023/09/04 08:46:35;;;;;;;3.53;2.40;;;18.10;99.90;;;;;;5033517;28;20111;-73
2023/09/04 08:49:21;;;;;;;5.38;2.65;;;18.10;99.90;;;;;;5042733;28;20047;-73
2023/09/04 08:52:07;;;;;;;3.58;1.95;;;18.20;99.90;;;;;;5025854;28;20048;-74
2023/09/04 08:54:53;;;;;;;5.60;1.95;;;18.30;99.90;;;;;;5034013;28;20038;-73
2023/09/04 08:57:40;;;;;;;2.67;1.92;;;18.40;99.90;;;;;;5017109;28;20042;-75
2023/09/04 09:00:26;;;;;;;7.00;2.15;;;18.50;99.90;;;;;;5053742;28;20437;-74
2023/09/04 09:03:12;;;;;;;5.88;2.17;;;18.60;99.90;;;;;;5040473;28;20053;-73
2023/09/04 09:05:58;;;;;;;3.45;2.00;;;18.70;99.90;;;;;;5026157;28;20056;-73
2023/09/04 09:08:44;;;;;;;4.57;2.15;;;18.80;99.90;;;;;;5028478;28;20040;-73
2023/09/04 09:11:30;;;;;;;3.03;1.75;;;18.80;99.90;;;;;;5022091;28;20040;-73
2023/09/04 09:14:16;;;;;;;4.13;2.08;;;18.90;99.90;;;;;;5032455;28;20123;-73
2023/09/04 09:17:06;;;;;;;3.83;1.90;;;18.80;99.90;;;;;;5040880;28;20477;-74
2023/09/04 09:19:52;;;;;;;3.40;1.95;;;18.90;99.90;;;;;;5040926;28;20052;-74
2023/09/04 09:22:38;;;;;;;3.28;1.77;;;19.10;99.90;;;;;;5048730;28;20083;-73
2023/09/04 09:25:24;;;;;;;3.10;1.73;;;19.10;99.90;;;;;;5040483;28;20492;-73
2023/09/04 09:28:10;;;;;;;6.85;2.00;;;19.20;99.90;;;;;;5021814;28;20503;-73
2023/09/04 09:30:57;;;;;;;6.07;2.17;;;19.30;99.90;;;;;;5012665;28;20490;-74
2023/09/04 09:33:43;;;;;;;3.10;1.80;;;19.40;99.90;;;;;;5044104;28;20071;-74
2023/09/04 09:36:29;;;;;;;3.00;1.90;;;19.40;99.90;;;;;;5043345;28;20540;-74
2023/09/04 09:39:15;;;;;;;3.92;1.80;;;19.50;99.90;;;;;;5050564;28;20042;-74
2023/09/04 09:42:01;;;;;;;3.38;1.80;;;19.70;99.90;;;;;;5020997;28;20065;-74
2023/09/04 09:44:47;;;;;;;7.18;2.20;;;19.80;99.90;;;;;;5045503;28;20041;-73
2023/09/04 09:47:33;;;;;;;3.55;1.60;;;19.80;99.90;;;;;;5032073;28;20029;-74
2023/09/04 09:50:22;;;;;;;3.45;1.80;;;20.00;99.90;;;;;;5034619;28;20044;-73
2023/09/04 09:53:08;;;;;;;3.65;1.80;;;20.10;99.90;;;;;;5041453;28;20041;-74
2023/09/04 09:55:55;;;;;;;3.58;1.85;;;20.30;99.90;;;;;;5012939;28;20387;-74
2023/09/04 09:58:45;;;;;;;3.05;2.00;;;20.30;99.90;;;;;;5028009;28;20458;-73
2023/09/04 10:01:31;;;;;;;3.33;1.63;;;20.40;99.90;;;;;;5067216;28;20492;-73
2023/09/04 10:04:18;;;;;;;4.93;2.00;;;20.40;99.90;;;;;;5029307;28;20042;-74
2023/09/04 10:07:04;;;;;;;4.32;2.10;;;20.60;99.90;;;;;;5024421;28;20045;-73
2023/09/04 10:10:12;;;;;;;3.67;1.60;;;20.60;99.90;;;;;;5037633;28;20071;-74
2023/09/04 10:13:09;;;;;;;3.55;1.73;;;20.70;99.90;;;;;;5048095;28;20535;-74
2023/09/04 10:15:57;;;;;;;3.45;1.90;;;20.90;99.90;;;;;;5037095;28;20029;-74
2023/09/04 10:18:44;;;;;;;4.78;1.83;;;20.90;99.90;;;;;;5033801;28;20522;-74
2023/09/04 10:21:33;;;;;;;4.03;2.00;;;21.10;99.90;;;;;;5054988;28;20103;-74
2023/09/04 10:24:20;;;;;;;3.85;2.00;;;21.10;99.90;;;;;;5019596;28;20041;-74
2023/09/04 10:27:09;;;;;;;3.78;1.80;;;21.20;99.90;;;;;;5020271;28;20056;-74
2023/09/04 10:29:59;;;;;;;7.30;3.90;;;21.30;99.90;;;;;;5037283;28;20072;-74
2023/09/04 10:32:45;;;;;;;4.60;2.60;;;21.50;99.90;;;;;;5048935;28;20094;-74
2023/09/04 10:35:31;;;;;;;2.50;1.52;;;21.60;99.90;;;;;;5049833;28;20089;-75
2023/09/04 10:38:17;;;;;;;3.25;1.40;;;21.90;99.90;;;;;;5053656;28;20398;-75
2023/09/04 10:41:07;;;;;;;3.65;2.00;;;22.00;99.90;;;;;;5025190;28;20040;-74
2023/09/04 10:43:53;;;;;;;3.55;1.60;;;22.30;99.90;;;;;;5019014;28;20111;-75
2023/09/04 10:46:54;;;;;;;5.35;1.80;;;22.50;99.80;;;;;;5047907;28;20045;-75
2023/09/04 10:49:44;;;;;;;2.72;1.75;;;22.70;99.90;;;;;;5031489;28;20444;-75
2023/09/04 10:52:41;;;;;;;5.07;1.77;;;23.00;99.50;;;;;;5035549;28;20754;-74
2023/09/04 10:55:27;;;;;;;4.93;1.60;;;23.20;99.30;;;;;;5045519;28;20041;-76
2023/09/04 10:58:13;;;;;;;3.28;1.75;;;23.40;99.30;;;;;;5022072;28;20037;-75
2023/09/04 11:00:59;;;;;;;3.35;1.50;;;23.70;99.10;;;;;;5043410;28;20734;-75
2023/09/04 11:03:45;;;;;;;6.07;1.67;;;23.90;98.60;;;;;;5023627;28;20045;-76
2023/09/04 11:06:41;;;;;;;4.22;1.65;;;24.10;97.70;;;;;;5054477;28;20041;-77
2023/09/04 11:09:27;;;;;;;3.55;1.80;;;24.30;98.40;;;;;;5035973;28;20044;-75
2023/09/04 11:12:23;;;;;;;3.33;1.60;;;24.50;98.00;;;;;;5016569;28;20355;-76
2023/09/04 11:15:15;;;;;;;2.65;1.65;;;24.70;98.00;;;;;;5024267;28;20043;-75
2023/09/04 11:18:01;;;;;;;3.53;1.58;;;24.80;97.70;;;;;;5016095;28;20084;-76
2023/09/04 11:20:47;;;;;;;3.00;1.52;;;24.90;96.50;;;;;;5027802;28;20052;-75
2023/09/04 11:23:34;;;;;;;34.05;27.05;;;25.10;96.60;;;;;;5022670;28;20049;-75
2023/09/04 11:26:20;;;;;;;22.48;13.45;;;25.40;96.20;;;;;;5034512;28;20465;-76
2023/09/04 11:29:07;;;;;;;5.35;3.60;;;25.50;96.30;;;;;;5016474;28;20100;-77
2023/09/04 11:31:54;;;;;;;4.88;1.63;;;25.70;95.90;;;;;;5049133;28;20060;-75
2023/09/04 11:34:46;;;;;;;2.97;1.70;;;25.90;95.40;;;;;;5027438;28;20369;-75
2023/09/04 11:37:32;;;;;;;4.00;1.63;;;26.00;95.20;;;;;;5033010;28;20045;-75
2023/09/04 11:40:18;;;;;;;4.05;1.60;;;26.10;95.10;;;;;;5036905;28;20036;-75
2023/09/04 11:43:05;;;;;;;3.53;1.63;;;26.30;94.60;;;;;;5037338;28;20041;-75
2023/09/04 11:45:57;;;;;;;2.83;1.60;;;26.30;95.40;;;;;;5033046;28;20077;-76
2023/09/04 11:48:43;;;;;;;4.97;1.40;;;26.20;91.70;;;;;;5031373;28;20061;-76
2023/09/04 11:51:32;;;;;;;3.20;1.40;;;26.20;92.80;;;;;;5041160;28;20036;-75
2023/09/04 11:54:35;;;;;;;2.78;1.35;;;26.30;92.50;;;;;;5013495;28;20037;-75
2023/09/04 11:57:22;;;;;;;2.03;1.50;;;26.30;92.90;;;;;;5012992;28;20462;-75
2023/09/04 12:00:09;;;;;;;2.50;1.27;;;26.20;91.80;;;;;;5005426;28;20069;-75
2023/09/04 12:03:03;;;;;;;4.10;1.60;;;26.30;92.60;;;;;;5023147;28;20075;-76
2023/09/04 12:05:51;;;;;;;3.00;1.20;;;26.20;91.70;;;;;;5045880;28;20037;-75
2023/09/04 12:08:37;;;;;;;;;;;25.90;89.90;;;;;;5020190;28;20053;-76
2023/09/04 12:11:23;;;;;;;3.38;1.50;;;26.00;91.20;;;;;;5029317;28;19912;-76
2023/09/04 12:14:09;;;;;;;2.53;1.40;;;26.00;90.40;;;;;;5016983;28;20037;-76
2023/09/04 12:16:55;;;;;;;2.90;1.60;;;25.90;90.50;;;;;;5014388;28;20069;-76
2023/09/04 12:19:44;;;;;;;3.90;1.50;;;25.80;90.40;;;;;;5031731;28;20064;-77
2023/09/04 12:22:30;;;;;;;2.03;1.40;;;26.00;91.10;;;;;;5036655;28;20037;-76
2023/09/04 12:25:16;;;;;;;3.47;1.30;;;26.30;91.10;;;;;;5035929;28;20045;-76
2023/09/04 12:28:06;;;;;;;2.20;1.23;;;26.30;90.20;;;;;;5038879;28;20128;-75
2023/09/04 12:30:51;;;;;;;3.85;1.52;;;26.10;90.80;;;;;;5048800;28;20473;-75
2023/09/04 12:33:41;;;;;;;4.35;1.63;;;26.20;90.50;;;;;;5026525;28;20045;-75
2023/09/04 12:36:29;;;;;;;2.92;1.42;;;26.10;88.00;;;;;;5047598;28;20095;-75
2023/09/04 12:39:15;;;;;;;2.45;1.60;;;25.80;88.40;;;;;;5035143;28;20037;-75
2023/09/04 12:42:04;;;;;;;2.72;1.70;;;26.00;88.70;;;;;;5035710;28;20037;-75
2023/09/04 12:44:51;;;;;;;4.97;1.40;;;26.20;89.90;;;;;;5018511;28;20041;-75
2023/09/04 12:47:37;;;;;;;17.03;2.00;;;26.40;90.40;;;;;;5036952;28;20045;-76
2023/09/04 12:50:23;;;;;;;3.65;1.42;;;26.50;89.90;;;;;;5017865;28;20280;-75
2023/09/04 12:53:09;;;;;;;3.95;1.50;;;26.40;87.10;;;;;;5039192;28;20037;-75
2023/09/04 12:55:55;;;;;;;2.95;1.77;;;26.40;87.10;;;;;;5046384;28;20064;-75
2023/09/04 12:58:41;;;;;;;2.75;1.40;;;26.50;87.80;;;;;;5031431;28;20038;-75
2023/09/04 13:01:27;;;;;;;5.43;1.90;;;26.70;87.90;;;;;;5030416;28;20072;-76
2023/09/04 13:04:12;;;;;;;3.38;1.45;;;26.80;86.90;;;;;;5029776;28;20049;-76
2023/09/04 13:06:58;;;;;;;2.80;1.42;;;27.00;88.50;;;;;;5030142;28;20037;-75
2023/09/04 13:09:44;;;;;;;3.10;1.33;;;26.90;85.90;;;;;;5030102;28;20126;-75
2023/09/04 13:12:31;;;;;;;2.85;1.55;;;27.30;85.40;;;;;;5013503;28;20394;-76
2023/09/04 13:15:17;;;;;;;2.83;1.60;;;27.30;85.80;;;;;;5048388;28;20094;-76
2023/09/04 13:18:03;;;;;;;2.20;1.40;;;27.20;83.50;;;;;;5030409;28;20044;-76
2023/09/04 13:20:49;;;;;;;5.05;1.70;;;27.30;85.20;;;;;;5039745;28;20381;-76
2023/09/04 13:23:36;;;;;;;2.80;1.65;;;27.70;84.80;;;;;;5034597;28;20067;-76
2023/09/04 13:26:23;;;;;;;3.20;1.33;;;27.60;84.20;;;;;;5037898;28;20045;-76
2023/09/04 13:29:09;;;;;;;1.65;1.27;;;28.00;90.90;;;;;;5022350;28;20083;-75
2023/09/04 13:31:55;;;;;;;3.85;1.60;;;27.20;88.30;;;;;;5030743;28;20045;-76
2023/09/04 13:34:41;;;;;;;2.63;1.45;;;27.60;88.30;;;;;;5041426;28;20855;-75
2023/09/04 13:37:28;;;;;;;4.32;1.60;;;27.60;89.00;;;;;;5021431;28;20053;-76
2023/09/04 13:40:14;;;;;;;3.30;1.30;;;28.20;89.60;;;;;;5030746;28;20063;-76
2023/09/04 13:43:00;;;;;;;3.20;1.50;;;28.50;87.90;;;;;;5031055;28;20041;-75
2023/09/04 13:45:46;;;;;;;2.90;1.50;;;28.60;90.00;;;;;;5018466;28;20204;-77
2023/09/04 13:48:32;;;;;;;3.53;1.90;;;28.60;87.00;;;;;;5045334;28;20036;-76
2023/09/04 13:51:18;;;;;;;2.90;1.67;;;28.40;88.20;;;;;;5038311;28;20799;-75
2023/09/04 13:54:04;;;;;;;2.78;1.55;;;29.20;90.80;;;;;;5053200;28;20535;-76
2023/09/04 13:56:50;;;;;;;4.43;1.60;;;29.50;79.70;;;;;;5052030;28;20323;-75
2023/09/04 13:59:36;;;;;;;4.85;1.63;;;29.00;79.50;;;;;;5024098;28;20045;-75
2023/09/04 14:02:22;;;;;;;2.38;1.27;;;29.50;82.50;;;;;;5033228;28;20141;-77
2023/09/04 14:05:11;;;;;;;1.80;1.30;;;29.40;80.90;;;;;;5031368;28;20386;-76
2023/09/04 14:07:56;;;;;;;3.00;1.40;;;29.60;79.00;;;;;;5041119;28;20143;-75
2023/09/04 14:10:43;;;;;;;2.25;1.40;;;29.40;77.50;;;;;;5036747;28;20037;-76
2023/09/04 14:13:29;;;;;;;4.22;1.40;;;29.60;80.10;;;;;;5031613;28;20030;-76
2023/09/04 14:16:16;;;;;;;7.25;2.00;;;29.90;79.50;;;;;;5020782;28;20099;-80
2023/09/04 14:19:02;;;;;;;2.67;1.45;;;29.90;79.90;;;;;;5051471;28;20057;-76
2023/09/04 14:21:53;;;;;;;4.57;1.33;;;30.00;78.90;;;;;;5038657;28;20080;-76
2023/09/04 14:24:39;;;;;;;3.35;1.30;;;30.20;77.60;;;;;;5018333;28;20041;-75
2023/09/04 14:27:25;;;;;;;3.70;1.33;;;30.20;79.30;;;;;;5039011;28;20450;-76
2023/09/04 14:30:11;;;;;;;3.38;1.30;;;30.30;79.00;;;;;;5037389;28;20041;-76